Time;durP1;ratioP1;P1;durP2;ratioP2;P2;SDS_P1;SDS_P2;PMS_P1;PMS_P2;Temp;Humidity;BMP_temperature;BMP_pressure;BME280_temperature;BME280_humidity;BME280_pressure;Samples;Min_cycle;Max_cycle;Signal;HPM_P1;HPM_P2
2022/12/23 00:01:03;;;;;;;122.80;39.67;;;;;;;;;;5015051;28;20037;-65
2022/12/23 00:03:29;;;;;;;155.85;40.13;;;;;;;;;;5016250;28;20068;-65
2022/12/23 00:05:56;;;;;;;127.50;38.63;;;;;;;;;;5012996;28;20045;-64
2022/12/23 00:08:22;;;;;;;144.80;40.33;;;;;;;;;;5009704;28;20159;-64
2022/12/23 00:10:49;;;;;;;114.28;38.70;;;;;;;;;;5013696;28;21816;-65
2022/12/23 00:16:04;;;;;;;134.88;38.97;;;;;;;;;;5017915;28;20660;-65
2022/12/23 00:18:30;;;;;;;110.22;37.03;;;;;;;;;;5020833;28;20503;-65
2022/12/23 00:20:57;;;;;;;176.25;42.22;;;;;;;;;;5018195;28;20095;-65
2022/12/23 00:23:23;;;;;;;141.25;42.30;;;;;;;;;;5016077;28;20045;-65
2022/12/23 00:25:50;;;;;;;98.97;35.25;;;;;;;;;;5019190;28;20045;-65
2022/12/23 00:28:17;;;;;;;121.55;39.78;;;;;;;;;;5016873;28;20051;-66
2022/12/23 00:30:48;;;;;;;150.35;39.67;;;;;;;;;;5016382;28;20564;-66
2022/12/23 00:33:18;;;;;;;134.75;39.67;;;;;;;;;;5015115;28;20162;-65
2022/12/23 00:35:45;;;;;;;189.02;41.50;;;;;;;;;;5017942;28;20107;-64
2022/12/23 00:38:11;;;;;;;122.65;37.58;;;;;;;;;;5014916;28;20753;-66
2022/12/23 00:43:22;;;;;;;128.15;37.33;;;;;;;;;;5016601;28;20480;-65
2022/12/23 00:45:48;;;;;;;101.18;37.20;;;;;;;;;;5016619;28;20042;-66
2022/12/23 00:50:59;;;;;;;125.93;40.63;;;;;;;;;;5015102;28;20440;-64
2022/12/23 00:53:25;;;;;;;131.80;40.50;;;;;;;;;;5016519;28;20041;-65
2022/12/23 00:55:51;;;;;;;130.10;41.92;;;;;;;;;;5014913;28;20041;-65
2022/12/23 00:58:18;;;;;;;135.20;41.00;;;;;;;;;;5011079;28;20685;-65
2022/12/23 01:06:15;;;;;;;103.70;38.50;;;;;;;;;;5018106;28;20195;-65
2022/12/23 01:08:41;;;;;;;198.88;42.50;;;;;;;;;;5016875;28;20059;-65
2022/12/23 01:11:09;;;;;;;144.15;39.05;;;;;;;;;;5014889;28;20861;-66
2022/12/23 01:13:35;;;;;;;124.57;39.78;;;;;;;;;;5015707;28;20049;-66
2022/12/23 01:16:03;;;;;;;119.57;39.70;;;;;;;;;;5015239;28;20052;-65
2022/12/23 01:18:29;;;;;;;167.75;41.13;;;;;;;;;;5015490;28;20037;-64
2022/12/23 01:20:55;;;;;;;158.00;44.50;;;;;;;;;;5008774;28;20876;-64
2022/12/23 01:23:21;;;;;;;119.57;41.53;;;;;;;;;;5020101;28;20544;-64
2022/12/23 01:25:55;;;;;;;113.90;41.55;;;;;;;;;;5016896;28;20621;-65
2022/12/23 01:28:21;;;;;;;97.57;37.97;;;;;;;;;;5018929;28;20501;-65
2022/12/23 01:30:47;;;;;;;107.63;38.92;;;;;;;;;;5020093;28;20944;-66
2022/12/23 01:33:13;;;;;;;115.10;38.63;;;;;;;;;;5018866;28;20505;-65
2022/12/23 01:35:39;;;;;;;112.97;38.90;;;;;;;;;;5002014;28;20052;-65
2022/12/23 01:38:05;;;;;;;122.40;41.22;;;;;;;;;;5022480;28;20045;-65
2022/12/23 01:40:35;;;;;;;118.85;41.50;;;;;;;;;;5018843;28;20053;-65
2022/12/23 01:43:01;;;;;;;106.07;38.58;;;;;;;;;;5015745;28;20359;-66
2022/12/23 01:45:28;;;;;;;126.53;40.38;;;;;;;;;;5015207;28;20089;-64
2022/12/23 01:47:59;;;;;;;159.00;42.80;;;;;;;;;;5020188;28;20033;-66
2022/12/23 01:50:29;;;;;;;134.50;41.17;;;;;;;;;;5020977;28;20045;-65
2022/12/23 01:53:10;;;;;;;119.63;40.97;;;;;;;;;;5018326;28;20037;-65
2022/12/23 01:55:40;;;;;;;115.68;39.60;;;;;;;;;;5016422;28;20135;-65
2022/12/23 01:58:23;;;;;;;144.98;41.35;;;;;;;;;;5016452;28;20041;-65
2022/12/23 02:03:41;;;;;;;106.90;39.65;;;;;;;;;;5020261;28;20098;-64
2022/12/23 02:12:08;;;;;;;104.13;37.22;;;;;;;;;;5011818;28;20111;-65
2022/12/23 02:18:05;;;;;;;108.45;36.53;;;;;;;;;;5016792;28;20401;-65
2022/12/23 02:20:34;;;;;;;103.70;36.78;;;;;;;;;;5014736;28;20680;-66
2022/12/23 02:23:19;;;;;;;106.57;36.92;;;;;;;;;;5018722;28;20091;-65
2022/12/23 02:25:56;;;;;;;111.32;36.17;;;;;;;;;;5016293;28;20175;-66
2022/12/23 02:28:40;;;;;;;109.80;36.47;;;;;;;;;;5006319;28;20482;-65
2022/12/23 02:31:09;;;;;;;;;;;;;;;;;;5017600;28;20036;-65
2022/12/23 02:33:44;;;;;;;109.53;35.10;;;;;;;;;;5017587;28;19924;-65
2022/12/23 02:36:16;;;;;;;108.22;35.80;;;;;;;;;;5012787;28;20034;-64
2022/12/23 02:38:46;;;;;;;102.63;36.13;;;;;;;;;;5018600;28;20528;-64
2022/12/23 02:41:22;;;;;;;94.97;34.15;;;;;;;;;;5015618;28;20045;-64
2022/12/23 02:43:57;;;;;;;105.93;36.30;;;;;;;;;;5014393;28;20099;-66
2022/12/23 02:46:35;;;;;;;109.03;37.10;;;;;;;;;;5015651;28;20053;-66
2022/12/23 02:49:12;;;;;;;120.25;36.95;;;;;;;;;;5016073;28;20162;-66
2022/12/23 02:51:41;;;;;;;125.28;36.28;;;;;;;;;;5018039;28;20088;-65
2022/12/23 02:54:08;;;;;;;131.70;37.92;;;;;;;;;;5015380;28;20041;-65
2022/12/23 02:56:36;;;;;;;114.65;36.85;;;;;;;;;;5016336;28;20053;-66
2022/12/23 02:59:22;;;;;;;119.10;38.58;;;;;;;;;;5018485;28;21497;-65
2022/12/23 03:01:49;;;;;;;129.30;39.63;;;;;;;;;;5017150;28;20590;-65
2022/12/23 03:04:15;;;;;;;143.95;39.47;;;;;;;;;;5017435;28;20549;-66
2022/12/23 03:06:43;;;;;;;133.98;39.90;;;;;;;;;;5018601;28;20082;-65
2022/12/23 03:09:13;;;;;;;123.05;38.10;;;;;;;;;;5019098;28;20086;-64
2022/12/23 03:11:50;;;;;;;132.02;37.78;;;;;;;;;;4999277;28;20397;-64
2022/12/23 03:14:35;;;;;;;137.52;38.55;;;;;;;;;;5016189;28;20044;-65
2022/12/23 03:17:10;;;;;;;162.00;39.40;;;;;;;;;;5017186;28;20783;-65
2022/12/23 03:19:42;;;;;;;130.70;38.55;;;;;;;;;;5016371;28;20063;-65
2022/12/23 03:22:27;;;;;;;142.50;38.05;;;;;;;;;;5018440;28;20049;-65
2022/12/23 03:24:56;;;;;;;174.57;39.80;;;;;;;;;;5015110;28;20037;-65
2022/12/23 03:27:26;;;;;;;143.93;38.35;;;;;;;;;;4990594;28;20196;-66
2022/12/23 03:30:08;;;;;;;130.98;37.67;;;;;;;;;;5009431;28;20130;-64
2022/12/23 03:32:38;;;;;;;141.13;38.15;;;;;;;;;;5007294;28;20634;-65
2022/12/23 03:35:05;;;;;;;152.18;39.22;;;;;;;;;;5013593;28;20046;-65
2022/12/23 03:37:33;;;;;;;132.05;37.13;;;;;;;;;;5012168;28;20072;-65
2022/12/23 03:40:11;;;;;;;127.28;36.05;;;;;;;;;;5009766;28;20168;-66
2022/12/23 03:42:40;;;;;;;139.18;36.50;;;;;;;;;;5014494;28;20095;-65
2022/12/23 03:45:08;;;;;;;131.20;37.85;;;;;;;;;;5008771;28;20059;-66
2022/12/23 03:47:38;;;;;;;121.65;34.63;;;;;;;;;;5011571;28;20048;-65
2022/12/23 03:50:12;;;;;;;125.07;34.90;;;;;;;;;;5011181;28;20044;-65
2022/12/23 03:52:40;;;;;;;115.18;33.83;;;;;;;;;;5012415;28;20037;-66
2022/12/23 03:55:10;;;;;;;109.95;34.92;;;;;;;;;;5013481;28;20037;-65
2022/12/23 03:57:51;;;;;;;115.90;34.05;;;;;;;;;;5009038;28;20037;-64
2022/12/23 04:00:18;;;;;;;117.10;33.10;;;;;;;;;;5010664;28;20148;-64
2022/12/23 04:02:44;;;;;;;126.15;34.65;;;;;;;;;;5009461;28;21623;-64
2022/12/23 04:05:15;;;;;;;117.25;33.80;;;;;;;;;;5012064;28;20044;-65
2022/12/23 04:08:00;;;;;;;116.10;32.67;;;;;;;;;;5009038;28;20048;-65
2022/12/23 04:10:27;;;;;;;121.75;33.53;;;;;;;;;;5003933;28;20681;-65
2022/12/23 04:12:53;;;;;;;116.57;32.55;;;;;;;;;;5011831;28;20041;-65
2022/12/23 04:15:20;;;;;;;112.30;31.65;;;;;;;;;;5012812;28;20142;-64
2022/12/23 04:17:47;;;;;;;106.85;31.98;;;;;;;;;;5005966;28;20040;-65
2022/12/23 04:20:13;;;;;;;110.93;31.20;;;;;;;;;;5010958;28;20453;-66
2022/12/23 04:22:42;;;;;;;123.82;33.35;;;;;;;;;;5014787;28;20044;-63
2022/12/23 04:25:08;;;;;;;113.97;31.42;;;;;;;;;;5009432;28;20128;-65
2022/12/23 04:27:34;;;;;;;104.78;29.88;;;;;;;;;;5002599;28;20795;-64
2022/12/23 04:30:00;;;;;;;119.35;31.70;;;;;;;;;;5004970;28;20050;-65
2022/12/23 04:32:26;;;;;;;99.97;30.05;;;;;;;;;;5007563;28;20076;-65
2022/12/23 04:34:52;;;;;;;97.72;30.00;;;;;;;;;;5010300;28;20485;-65
2022/12/23 04:37:18;;;;;;;95.65;29.20;;;;;;;;;;5010915;28;20646;-65
2022/12/23 04:39:45;;;;;;;101.78;27.98;;;;;;;;;;4994033;28;20143;-66
2022/12/23 04:42:11;;;;;;;95.75;29.65;;;;;;;;;;5008038;28;20151;-65
2022/12/23 04:44:37;;;;;;;95.22;27.42;;;;;;;;;;5012298;28;20098;-65
2022/12/23 04:47:03;;;;;;;96.97;27.25;;;;;;;;;;5012070;28;20083;-65
2022/12/23 04:49:29;;;;;;;86.50;27.17;;;;;;;;;;5011748;28;20439;-65
2022/12/23 04:51:56;;;;;;;99.20;28.33;;;;;;;;;;5002414;28;20813;-66
2022/12/23 04:54:22;;;;;;;84.63;25.33;;;;;;;;;;5014653;28;20049;-66
2022/12/23 04:56:48;;;;;;;92.80;26.73;;;;;;;;;;5016237;28;20060;-66
2022/12/23 04:59:14;;;;;;;95.15;26.00;;;;;;;;;;5021748;28;20400;-64
2022/12/23 05:01:41;;;;;;;84.78;25.42;;;;;;;;;;5015834;28;20661;-64
2022/12/23 05:04:07;;;;;;;91.93;26.25;;;;;;;;;;5015823;28;20481;-65
2022/12/23 05:06:33;;;;;;;92.57;25.48;;;;;;;;;;5017065;28;20517;-65
2022/12/23 05:08:59;;;;;;;85.85;24.73;;;;;;;;;;5015206;28;20055;-65
2022/12/23 05:11:26;;;;;;;85.00;25.85;;;;;;;;;;5015460;28;21615;-65
2022/12/23 05:13:52;;;;;;;87.25;25.40;;;;;;;;;;5017111;28;20042;-65
2022/12/23 05:16:18;;;;;;;86.75;24.60;;;;;;;;;;5018976;28;20045;-66
2022/12/23 05:18:44;;;;;;;90.57;26.20;;;;;;;;;;5031520;28;20668;-64
2022/12/23 05:21:10;;;;;;;75.47;22.80;;;;;;;;;;5017258;28;20052;-65
2022/12/23 05:23:37;;;;;;;74.93;23.13;;;;;;;;;;5020298;28;20160;-65
2022/12/23 05:26:03;;;;;;;77.68;23.80;;;;;;;;;;5007073;28;20038;-65
2022/12/23 05:28:29;;;;;;;79.93;23.08;;;;;;;;;;5011557;28;20040;-65
2022/12/23 05:30:59;;;;;;;72.35;22.60;;;;;;;;;;5011898;28;20056;-65
2022/12/23 05:33:26;;;;;;;70.22;21.92;;;;;;;;;;5012919;28;20091;-65
2022/12/23 05:35:52;;;;;;;67.63;21.55;;;;;;;;;;5010854;28;20450;-65
2022/12/23 05:38:18;;;;;;;64.60;21.80;;;;;;;;;;5012942;28;20049;-65
2022/12/23 05:40:44;;;;;;;60.25;19.83;;;;;;;;;;5011576;28;20140;-65
2022/12/23 05:43:10;;;;;;;72.15;22.95;;;;;;;;;;5015401;28;21347;-65
2022/12/23 05:45:36;;;;;;;69.15;22.48;;;;;;;;;;5011798;28;20041;-65
2022/12/23 05:48:02;;;;;;;77.60;22.30;;;;;;;;;;5016685;28;20769;-65
2022/12/23 05:50:28;;;;;;;57.20;21.17;;;;;;;;;;5016034;28;20052;-64
2022/12/23 05:52:56;;;;;;;60.63;20.65;;;;;;;;;;5014007;28;20132;-65
2022/12/23 05:55:22;;;;;;;67.07;22.02;;;;;;;;;;5015860;28;20450;-65
2022/12/23 05:57:49;;;;;;;65.40;22.08;;;;;;;;;;5013295;28;20059;-65
2022/12/23 06:00:15;;;;;;;68.20;21.67;;;;;;;;;;5009841;28;20045;-65
2022/12/23 06:02:41;;;;;;;74.78;22.02;;;;;;;;;;5012655;28;20045;-65
2022/12/23 06:05:07;;;;;;;61.67;20.95;;;;;;;;;;5012849;28;20046;-65
2022/12/23 06:07:33;;;;;;;65.88;19.63;;;;;;;;;;5010527;28;20045;-65
2022/12/23 06:09:59;;;;;;;65.00;20.30;;;;;;;;;;5012604;28;20037;-66
2022/12/23 06:12:25;;;;;;;69.05;21.27;;;;;;;;;;5012012;28;20088;-64
2022/12/23 06:14:52;;;;;;;61.83;20.15;;;;;;;;;;5013907;28;20056;-65
2022/12/23 06:17:18;;;;;;;73.18;20.30;;;;;;;;;;5017010;28;20045;-65
2022/12/23 06:19:46;;;;;;;68.40;20.35;;;;;;;;;;5016340;28;20115;-65
2022/12/23 06:22:12;;;;;;;72.03;20.58;;;;;;;;;;5017631;28;20068;-66
2022/12/23 06:24:38;;;;;;;96.57;20.77;;;;;;;;;;5018579;28;20147;-66
2022/12/23 06:27:04;;;;;;;202.95;23.23;;;;;;;;;;5016494;28;20064;-66
2022/12/23 06:29:30;;;;;;;183.25;22.65;;;;;;;;;;5005768;28;20048;-66
2022/12/23 06:31:56;;;;;;;186.85;22.25;;;;;;;;;;5016860;28;20102;-65
2022/12/23 06:34:23;;;;;;;156.02;23.10;;;;;;;;;;5017765;28;20121;-66
2022/12/23 06:36:49;;;;;;;271.13;26.27;;;;;;;;;;5016780;28;20523;-65
2022/12/23 06:39:15;;;;;;;446.75;29.30;;;;;;;;;;5016246;28;20186;-65
2022/12/23 06:41:41;;;;;;;255.65;23.63;;;;;;;;;;5017392;28;20041;-66
2022/12/23 06:44:07;;;;;;;250.30;23.13;;;;;;;;;;5016740;28;20741;-66
2022/12/23 06:46:33;;;;;;;308.75;25.55;;;;;;;;;;5016489;28;20411;-66
2022/12/23 06:48:59;;;;;;;346.65;25.00;;;;;;;;;;5008372;28;20151;-65
2022/12/23 06:51:25;;;;;;;231.90;23.05;;;;;;;;;;5014050;28;20044;-66
2022/12/23 06:53:51;;;;;;;390.08;26.98;;;;;;;;;;5009624;28;20041;-65
2022/12/23 06:56:17;;;;;;;511.85;26.55;;;;;;;;;;5016961;28;20492;-66
2022/12/23 06:58:43;;;;;;;583.55;28.95;;;;;;;;;;5018400;28;20041;-65
2022/12/23 07:01:10;;;;;;;361.42;25.10;;;;;;;;;;5013321;28;20044;-65
2022/12/23 07:03:36;;;;;;;504.80;29.50;;;;;;;;;;5011269;28;20098;-66
2022/12/23 07:06:02;;;;;;;490.23;28.38;;;;;;;;;;5011402;28;20048;-65
2022/12/23 07:08:28;;;;;;;455.02;25.35;;;;;;;;;;5002881;28;20387;-65
2022/12/23 07:11:02;;;;;;;413.05;24.95;;;;;;;;;;5016470;28;20127;-64
2022/12/23 07:13:28;;;;;;;442.40;25.10;;;;;;;;;;4994228;28;20060;-66
2022/12/23 07:15:54;;;;;;;362.98;21.45;;;;;;;;;;5018691;28;20060;-66
2022/12/23 07:18:22;;;;;;;309.98;25.73;;;;;;;;;;5021761;28;20100;-66
2022/12/23 07:20:48;;;;;;;395.83;29.55;;;;;;;;;;5013931;28;20149;-66
2022/12/23 07:23:14;;;;;;;225.07;20.55;;;;;;;;;;5018746;28;20188;-64
2022/12/23 07:25:40;;;;;;;264.63;22.40;;;;;;;;;;5018701;28;20049;-65
2022/12/23 07:28:06;;;;;;;200.48;21.10;;;;;;;;;;5017951;28;20033;-64
2022/12/23 07:30:32;;;;;;;208.00;21.88;;;;;;;;;;5021020;28;20045;-64
2022/12/23 07:32:58;;;;;;;172.10;22.50;;;;;;;;;;5021293;28;20470;-65
2022/12/23 07:35:25;;;;;;;115.50;23.65;;;;;;;;;;5011027;28;20056;-65
2022/12/23 07:37:54;;;;;;;102.85;21.38;;;;;;;;;;5009438;28;20099;-66
2022/12/23 07:40:24;;;;;;;92.85;22.13;;;;;;;;;;4994744;28;20070;-66
2022/12/23 07:42:53;;;;;;;71.22;22.30;;;;;;;;;;5014843;28;20045;-64
2022/12/23 07:45:19;;;;;;;67.15;22.65;;;;;;;;;;5017631;28;20116;-65
2022/12/23 07:47:51;;;;;;;77.85;21.48;;;;;;;;;;5013143;28;20494;-65
2022/12/23 07:50:17;;;;;;;84.88;24.48;;;;;;;;;;5008846;28;20055;-65
2022/12/23 07:52:43;;;;;;;79.20;20.77;;;;;;;;;;5010291;28;20619;-64
2022/12/23 07:55:10;;;;;;;94.40;24.98;;;;;;;;;;5014158;28;20049;-64
2022/12/23 07:57:39;;;;;;;99.35;24.25;;;;;;;;;;5007112;28;20037;-65
2022/12/23 08:00:06;;;;;;;152.95;26.67;;;;;;;;;;5013196;28;20806;-65
2022/12/23 08:02:32;;;;;;;115.88;24.83;;;;;;;;;;5014499;28;20044;-65
2022/12/23 08:04:58;;;;;;;185.77;26.33;;;;;;;;;;5009860;28;20079;-66
2022/12/23 08:07:24;;;;;;;170.25;26.15;;;;;;;;;;5012856;28;20354;-65
2022/12/23 08:09:50;;;;;;;120.13;25.13;;;;;;;;;;5009093;28;20048;-64
2022/12/23 08:12:16;;;;;;;141.07;25.55;;;;;;;;;;5011266;28;20141;-66
2022/12/23 08:14:43;;;;;;;245.18;28.40;;;;;;;;;;5013053;28;20676;-65
2022/12/23 08:17:09;;;;;;;365.02;29.85;;;;;;;;;;4999561;28;20453;-65
2022/12/23 08:19:35;;;;;;;396.98;34.20;;;;;;;;;;5014552;28;20040;-66
2022/12/23 08:22:01;;;;;;;288.52;31.35;;;;;;;;;;5011830;28;20044;-66
2022/12/23 08:24:27;;;;;;;294.35;27.60;;;;;;;;;;5011736;28;20123;-65
2022/12/23 08:26:53;;;;;;;235.65;27.50;;;;;;;;;;4994176;28;20051;-65
2022/12/23 08:29:19;;;;;;;376.30;36.30;;;;;;;;;;5014874;28;20074;-65
2022/12/23 08:31:45;;;;;;;264.60;25.42;;;;;;;;;;5014738;28;20037;-65
2022/12/23 08:34:13;;;;;;;232.93;23.33;;;;;;;;;;5012643;28;20129;-66
2022/12/23 08:36:39;;;;;;;434.13;36.33;;;;;;;;;;5014142;28;20049;-66
2022/12/23 08:39:07;;;;;;;297.48;33.10;;;;;;;;;;5013429;28;20152;-65
2022/12/23 08:41:39;;;;;;;194.63;28.40;;;;;;;;;;5004073;28;20136;-66
2022/12/23 08:44:05;;;;;;;184.90;31.15;;;;;;;;;;5011446;28;20132;-66
2022/12/23 08:46:31;;;;;;;118.53;29.95;;;;;;;;;;5011483;28;20045;-65
2022/12/23 08:48:58;;;;;;;122.30;37.70;;;;;;;;;;5010572;28;20088;-66
2022/12/23 08:51:25;;;;;;;129.25;41.55;;;;;;;;;;5013090;28;20037;-66
2022/12/23 08:53:52;;;;;;;116.22;41.72;;;;;;;;;;5013213;28;22199;-66
2022/12/23 08:56:20;;;;;;;110.45;37.15;;;;;;;;;;5011091;28;20049;-65
2022/12/23 08:58:47;;;;;;;84.72;31.65;;;;;;;;;;5010041;28;20037;-66
2022/12/23 09:01:14;;;;;;;80.55;27.73;;;;;;;;;;4991494;28;22161;-65
2022/12/23 09:03:40;;;;;;;71.63;25.20;;;;;;;;;;5012297;28;20084;-64
2022/12/23 09:06:07;;;;;;;73.03;25.02;;;;;;;;;;5011145;28;20769;-65
2022/12/23 09:08:34;;;;;;;70.40;24.42;;;;;;;;;;5011223;28;20045;-65
2022/12/23 09:11:00;;;;;;;84.80;23.98;;;;;;;;;;5007455;28;20053;-66
2022/12/23 09:13:26;;;;;;;66.03;22.42;;;;;;;;;;5011934;28;20041;-65
2022/12/23 09:15:53;;;;;;;61.08;23.10;;;;;;;;;;5011751;28;20045;-64
2022/12/23 09:18:19;;;;;;;56.15;21.83;;;;;;;;;;5015092;28;20140;-64
2022/12/23 09:20:45;;;;;;;60.20;21.83;;;;;;;;;;5009271;28;20500;-64
2022/12/23 09:23:11;;;;;;;57.83;21.85;;;;;;;;;;5010784;28;20050;-64
2022/12/23 09:25:37;;;;;;;62.10;22.27;;;;;;;;;;5006992;28;20156;-63
2022/12/23 09:28:05;;;;;;;61.10;21.10;;;;;;;;;;5007834;28;20056;-64
2022/12/23 09:30:32;;;;;;;63.40;21.30;;;;;;;;;;5009594;28;20086;-65
2022/12/23 09:32:58;;;;;;;59.63;21.38;;;;;;;;;;5007033;28;20041;-64
2022/12/23 09:35:24;;;;;;;59.30;21.45;;;;;;;;;;5015835;28;20037;-64
2022/12/23 09:37:50;;;;;;;66.35;22.65;;;;;;;;;;5009593;28;20041;-65
2022/12/23 09:40:19;;;;;;;51.17;21.17;;;;;;;;;;5009326;28;20056;-64
2022/12/23 09:42:45;;;;;;;67.10;24.23;;;;;;;;;;5004422;28;20495;-64
2022/12/23 09:45:16;;;;;;;62.63;22.92;;;;;;;;;;5008757;28;20649;-65
2022/12/23 09:47:42;;;;;;;61.00;23.02;;;;;;;;;;5012923;28;20036;-64
2022/12/23 09:50:18;;;;;;;45.90;21.48;;;;;;;;;;5029322;28;20797;-64
2022/12/23 09:52:47;;;;;;;43.88;19.75;;;;;;;;;;5016236;28;20473;-66
2022/12/23 09:55:14;;;;;;;48.58;19.02;;;;;;;;;;5006002;28;20718;-64
2022/12/23 09:58:00;;;;;;;43.90;18.85;;;;;;;;;;5016720;28;20041;-65
2022/12/23 10:00:29;;;;;;;51.25;19.70;;;;;;;;;;5021019;28;20044;-65
2022/12/23 10:03:15;;;;;;;47.30;18.38;;;;;;;;;;5018058;28;20045;-63
2022/12/23 10:06:00;;;;;;;65.40;20.77;;;;;;;;;;5021500;28;20159;-64
2022/12/23 10:08:32;;;;;;;56.00;20.20;;;;;;;;;;5020637;28;20123;-64
2022/12/23 10:11:04;;;;;;;54.67;21.40;;;;;;;;;;5021482;28;20045;-64
2022/12/23 10:13:50;;;;;;;60.85;20.83;;;;;;;;;;5016874;28;20052;-64
2022/12/23 10:16:22;;;;;;;54.33;20.00;;;;;;;;;;5018016;28;20041;-65
2022/12/23 10:19:00;;;;;;;63.05;21.55;;;;;;;;;;5020653;28;20130;-64
2022/12/23 10:21:48;;;;;;;57.03;21.17;;;;;;;;;;5015897;28;20576;-64
2022/12/23 10:24:31;;;;;;;51.75;21.10;;;;;;;;;;5020781;28;20684;-65
2022/12/23 10:27:00;;;;;;;48.15;21.35;;;;;;;;;;5018501;28;20116;-65
2022/12/23 10:29:29;;;;;;;43.50;18.92;;;;;;;;;;5016563;28;20059;-64
2022/12/23 10:31:58;;;;;;;40.47;17.13;;;;;;;;;;5012296;28;20484;-65
2022/12/23 10:34:24;;;;;;;45.90;18.95;;;;;;;;;;5011889;28;20033;-65
2022/12/23 10:37:00;;;;;;;44.63;17.30;;;;;;;;;;5009306;28;20128;-65
2022/12/23 10:39:31;;;;;;;38.80;16.90;;;;;;;;;;5011682;28;20091;-64
2022/12/23 10:41:57;;;;;;;48.20;17.92;;;;;;;;;;5019628;28;20049;-65
2022/12/23 10:44:26;;;;;;;43.20;16.40;;;;;;;;;;5021633;28;20139;-64
2022/12/23 10:46:58;;;;;;;41.42;17.63;;;;;;;;;;5022400;28;20517;-64
2022/12/23 10:49:34;;;;;;;49.45;19.10;;;;;;;;;;5023509;28;21444;-65
2022/12/23 10:52:05;;;;;;;55.85;20.52;;;;;;;;;;5022995;28;20444;-65
2022/12/23 10:54:31;;;;;;;47.25;19.65;;;;;;;;;;5020915;28;20659;-67
2022/12/23 10:56:57;;;;;;;55.50;19.75;;;;;;;;;;5022338;28;20673;-65
2022/12/23 10:59:28;;;;;;;48.63;20.55;;;;;;;;;;5021789;28;20033;-65
2022/12/23 11:02:02;;;;;;;47.78;19.30;;;;;;;;;;5022235;28;20045;-64
2022/12/23 11:04:36;;;;;;;46.22;20.23;;;;;;;;;;5018350;28;20635;-65
2022/12/23 11:07:03;;;;;;;51.85;20.10;;;;;;;;;;5020358;28;20052;-64
2022/12/23 11:09:51;;;;;;;51.92;21.05;;;;;;;;;;5022352;28;20493;-65
2022/12/23 11:12:21;;;;;;;53.97;20.05;;;;;;;;;;5020625;28;20037;-64
2022/12/23 11:14:52;;;;;;;64.57;20.50;;;;;;;;;;5028236;28;20524;-66
2022/12/23 11:17:30;;;;;;;57.20;21.45;;;;;;;;;;5019798;28;20440;-65
2022/12/23 11:20:08;;;;;;;53.95;20.13;;;;;;;;;;5018246;28;20056;-64
2022/12/23 11:22:34;;;;;;;52.65;20.85;;;;;;;;;;5017262;28;20124;-64
2022/12/23 11:25:17;;;;;;;56.63;21.90;;;;;;;;;;5016227;28;20057;-64
2022/12/23 11:27:44;;;;;;;56.90;22.17;;;;;;;;;;5015979;28;20412;-65
2022/12/23 11:30:18;;;;;;;61.20;21.98;;;;;;;;;;5020281;28;20103;-64
2022/12/23 11:32:44;;;;;;;62.47;24.50;;;;;;;;;;5003170;28;20055;-63
2022/12/23 11:35:25;;;;;;;69.72;23.75;;;;;;;;;;5018669;28;20339;-65
2022/12/23 11:37:51;;;;;;;68.22;24.85;;;;;;;;;;5020881;28;20065;-65
2022/12/23 11:40:37;;;;;;;67.00;24.15;;;;;;;;;;5021953;28;20106;-65
2022/12/23 11:43:15;;;;;;;67.07;25.10;;;;;;;;;;5018743;28;20037;-65
2022/12/23 11:45:41;;;;;;;77.13;25.48;;;;;;;;;;5016188;28;20605;-63
2022/12/23 11:48:25;;;;;;;77.22;26.10;;;;;;;;;;5020195;28;20105;-64
2022/12/23 11:51:01;;;;;;;77.53;25.30;;;;;;;;;;5020050;28;20044;-64
2022/12/23 11:53:28;;;;;;;74.13;25.02;;;;;;;;;;5011054;28;20050;-64
2022/12/23 11:56:02;;;;;;;65.72;24.45;;;;;;;;;;5011077;28;20126;-65
2022/12/23 11:58:29;;;;;;;73.70;25.30;;;;;;;;;;5010814;28;20034;-65
2022/12/23 12:00:57;;;;;;;68.97;24.73;;;;;;;;;;5015033;28;20053;-65
2022/12/23 12:03:26;;;;;;;69.82;24.88;;;;;;;;;;5006826;28;20551;-64
2022/12/23 12:05:58;;;;;;;61.33;25.08;;;;;;;;;;5003993;28;20044;-65
2022/12/23 12:08:27;;;;;;;73.75;25.23;;;;;;;;;;5009845;28;20511;-65
2022/12/23 12:10:59;;;;;;;79.10;26.40;;;;;;;;;;5010146;28;20041;-66
2022/12/23 12:13:28;;;;;;;70.57;26.20;;;;;;;;;;5010218;28;20041;-65
2022/12/23 12:16:10;;;;;;;75.22;26.00;;;;;;;;;;5005999;28;20123;-64
2022/12/23 12:18:37;;;;;;;85.03;32.92;;;;;;;;;;5013349;28;20095;-65
2022/12/23 12:21:06;;;;;;;73.40;27.02;;;;;;;;;;5011976;28;20044;-64
2022/12/23 12:23:41;;;;;;;75.55;25.58;;;;;;;;;;4996224;28;20044;-68
2022/12/23 12:26:12;;;;;;;58.63;23.20;;;;;;;;;;5012904;28;20883;-67
2022/12/23 12:28:46;;;;;;;55.42;21.55;;;;;;;;;;5012440;28;20648;-66
2022/12/23 12:31:33;;;;;;;47.55;20.17;;;;;;;;;;5012221;28;20080;-66
2022/12/23 12:34:12;;;;;;;88.15;21.73;;;;;;;;;;5011966;28;20127;-65
2022/12/23 12:36:38;;;;;;;82.80;21.88;;;;;;;;;;5017251;28;20080;-66
2022/12/23 12:39:08;;;;;;;60.75;23.13;;;;;;;;;;5017263;28;20559;-65
2022/12/23 12:41:37;;;;;;;31.23;18.92;;;;;;;;;;5015805;28;20390;-66
2022/12/23 12:44:11;;;;;;;67.25;21.98;;;;;;;;;;5008665;28;20186;-66
2022/12/23 12:46:44;;;;;;;48.85;19.70;;;;;;;;;;5009552;28;20644;-65
2022/12/23 12:49:14;;;;;;;38.65;18.60;;;;;;;;;;5002949;28;20042;-65
2022/12/23 12:51:50;;;;;;;37.28;17.02;;;;;;;;;;5007009;28;20136;-65
2022/12/23 12:54:32;;;;;;;34.90;18.02;;;;;;;;;;5008695;28;20064;-64
2022/12/23 12:57:01;;;;;;;97.28;21.05;;;;;;;;;;5012999;28;20037;-66
2022/12/23 12:59:27;;;;;;;70.15;20.73;;;;;;;;;;4990725;28;20625;-66
2022/12/23 13:02:05;;;;;;;46.80;18.30;;;;;;;;;;4990371;28;20102;-65
2022/12/23 13:04:49;;;;;;;36.55;19.88;;;;;;;;;;5007976;28;20060;-66
2022/12/23 13:07:15;;;;;;;44.15;20.08;;;;;;;;;;5002567;28;20041;-65
2022/12/23 13:09:41;;;;;;;49.85;22.42;;;;;;;;;;5005421;28;20055;-65
2022/12/23 13:12:28;;;;;;;45.55;23.77;;;;;;;;;;5007843;28;20314;-65
2022/12/23 13:15:02;;;;;;;42.05;22.50;;;;;;;;;;4996453;28;20052;-66
2022/12/23 13:17:33;;;;;;;49.73;24.73;;;;;;;;;;5005766;28;20048;-65
2022/12/23 13:20:08;;;;;;;66.60;28.88;;;;;;;;;;5012577;28;20651;-65
2022/12/23 13:22:34;;;;;;;61.88;26.60;;;;;;;;;;5008051;28;20125;-65
2022/12/23 13:25:12;;;;;;;62.40;23.35;;;;;;;;;;5006490;28;20052;-65
2022/12/23 13:27:43;;;;;;;88.80;19.60;;;;;;;;;;5010208;28;20059;-65
2022/12/23 13:30:11;;;;;;;43.20;20.52;;;;;;;;;;5008696;28;20210;-65
2022/12/23 13:32:49;;;;;;;48.63;23.48;;;;;;;;;;5008376;28;20394;-65
2022/12/23 13:35:16;;;;;;;31.40;16.90;;;;;;;;;;5010773;28;20125;-66
2022/12/23 13:37:50;;;;;;;42.22;20.15;;;;;;;;;;5015825;28;20135;-66
2022/12/23 13:40:45;;;;;;;37.75;19.17;;;;;;;;;;4999610;28;20316;-66
2022/12/23 13:43:15;;;;;;;36.88;18.20;;;;;;;;;;5006641;28;20146;-66
2022/12/23 13:45:42;;;;;;;38.97;18.05;;;;;;;;;;5003510;28;20580;-65
2022/12/23 13:48:08;;;;;;;55.47;20.55;;;;;;;;;;5012836;28;20045;-65
2022/12/23 13:50:44;;;;;;;44.67;19.92;;;;;;;;;;5008501;28;20492;-65
2022/12/23 13:53:19;;;;;;;110.05;22.30;;;;;;;;;;5008153;28;20201;-64
2022/12/23 13:55:56;;;;;;;153.07;21.58;;;;;;;;;;5009512;28;20174;-66
2022/12/23 13:58:24;;;;;;;120.93;20.42;;;;;;;;;;5006731;28;20537;-65
2022/12/23 14:01:14;;;;;;;60.35;20.73;;;;;;;;;;4998138;28;20187;-65
2022/12/23 14:03:40;;;;;;;73.18;19.65;;;;;;;;;;5001009;28;20049;-66
2022/12/23 14:06:25;;;;;;;69.70;21.85;;;;;;;;;;5012974;28;20041;-65
2022/12/23 14:08:52;;;;;;;46.40;20.70;;;;;;;;;;5013589;28;20156;-66
2022/12/23 14:11:23;;;;;;;43.83;19.98;;;;;;;;;;5014036;28;20056;-65
2022/12/23 14:13:49;;;;;;;47.85;19.77;;;;;;;;;;5013670;28;20084;-66
2022/12/23 14:16:34;;;;;;;47.92;19.75;;;;;;;;;;5012437;28;20052;-66
2022/12/23 14:19:19;;;;;;;43.88;20.35;;;;;;;;;;5008833;28;20049;-66
2022/12/23 14:22:03;;;;;;;42.10;20.35;;;;;;;;;;5011121;28;20408;-65
2022/12/23 14:24:36;;;;;;;44.92;21.15;;;;;;;;;;5011035;28;20048;-66
2022/12/23 14:27:02;;;;;;;44.95;20.35;;;;;;;;;;5009329;28;20048;-66
2022/12/23 14:29:42;;;;;;;42.22;20.65;;;;;;;;;;5009447;28;20057;-67
2022/12/23 14:32:23;;;;;;;37.60;18.90;;;;;;;;;;5010511;28;20045;-65
2022/12/23 14:35:04;;;;;;;37.72;19.83;;;;;;;;;;5009671;28;20621;-66
2022/12/23 14:37:32;;;;;;;46.35;20.58;;;;;;;;;;5010322;28;20117;-65
2022/12/23 14:40:18;;;;;;;46.38;19.95;;;;;;;;;;5011378;28;20057;-65
2022/12/23 14:42:44;;;;;;;41.58;19.40;;;;;;;;;;5007306;28;20044;-66
2022/12/23 14:45:29;;;;;;;43.97;19.60;;;;;;;;;;4991440;28;20127;-65
2022/12/23 14:47:55;;;;;;;48.42;19.67;;;;;;;;;;5011837;28;20509;-65
2022/12/23 14:50:33;;;;;;;46.78;19.80;;;;;;;;;;5003784;28;20040;-66
2022/12/23 14:53:01;;;;;;;56.33;21.45;;;;;;;;;;5007619;28;20245;-66